Time;durP1;ratioP1;P1;durP2;ratioP2;P2;SDS_P1;SDS_P2;PMS_P1;PMS_P2;Temp;Humidity;BMP_temperature;BMP_pressure;BME280_temperature;BME280_humidity;BME280_pressure;Samples;Min_cycle;Max_cycle;Signal;HPM_P1;HPM_P2
2021/05/27 00:00:25;;;;;;;8.88;6.40;;;7.00;99.90;;;;;;5045311;28;20041;-72
2021/05/27 00:02:51;;;;;;;10.13;6.53;;;6.90;99.90;;;;;;5049953;28;20078;-73
2021/05/27 00:05:17;;;;;;;8.38;6.50;;;6.50;99.90;;;;;;5044965;28;20378;-73
2021/05/27 00:07:43;;;;;;;6.70;5.82;;;6.20;99.90;;;;;;5036354;28;20107;-72
2021/05/27 00:10:12;;;;;;;7.60;6.60;;;6.20;99.90;;;;;;5044480;28;20103;-72
2021/05/27 00:12:37;;;;;;;6.55;5.95;;;6.30;99.90;;;;;;5048688;28;20111;-72
2021/05/27 00:15:06;;;;;;;8.13;6.80;;;6.50;99.90;;;;;;5074468;28;20066;-72
2021/05/27 00:17:32;;;;;;;9.93;8.13;;;6.60;99.90;;;;;;5074347;28;20111;-73
2021/05/27 00:19:58;;;;;;;9.57;7.55;;;6.70;99.90;;;;;;5074135;28;20070;-73
2021/05/27 00:22:23;;;;;;;8.38;5.95;;;6.60;99.90;;;;;;5074423;28;20017;-73
2021/05/27 00:24:49;;;;;;;10.35;6.88;;;6.60;99.90;;;;;;5056299;28;20074;-73
2021/05/27 00:27:14;;;;;;;9.07;6.82;;;6.70;99.90;;;;;;5074276;28;20028;-72
2021/05/27 00:29:40;;;;;;;7.72;6.88;;;6.70;99.90;;;;;;5060639;28;20465;-72
2021/05/27 00:32:06;;;;;;;7.20;6.43;;;6.80;99.90;;;;;;5067180;28;20169;-71
2021/05/27 00:34:31;;;;;;;8.10;6.60;;;6.90;99.90;;;;;;5036260;28;20480;-71
2021/05/27 00:36:57;;;;;;;8.95;5.95;;;6.80;99.90;;;;;;5067204;28;20029;-72
2021/05/27 00:39:23;;;;;;;7.70;5.85;;;6.90;99.90;;;;;;5053906;28;20074;-72
2021/05/27 00:41:48;;;;;;;7.45;5.60;;;6.80;99.90;;;;;;5074438;28;20141;-73
2021/05/27 00:44:24;;;;;;;9.07;7.18;;;6.50;99.90;;;;;;5060743;28;20071;-71
2021/05/27 00:46:50;;;;;;;;;;;6.40;99.90;;;;;;5032582;28;20056;-72
2021/05/27 00:49:16;;;;;;;7.22;6.53;;;6.20;99.90;;;;;;5057826;28;19909;-72
2021/05/27 00:51:43;;;;;;;7.93;6.30;;;6.30;99.90;;;;;;5062129;28;20038;-73
2021/05/27 00:54:10;;;;;;;6.35;5.75;;;6.40;99.90;;;;;;5073682;28;20032;-73
2021/05/27 00:56:36;;;;;;;10.18;6.00;;;6.50;99.90;;;;;;5055860;28;20465;-73
2021/05/27 00:59:02;;;;;;;8.90;7.30;;;6.70;99.90;;;;;;5045455;28;20017;-73
2021/05/27 01:01:27;;;;;;;6.70;6.00;;;6.80;99.90;;;;;;5062403;28;20036;-73
2021/05/27 01:03:53;;;;;;;6.65;5.90;;;6.80;99.90;;;;;;5058206;28;20025;-73
2021/05/27 01:06:18;;;;;;;7.78;5.90;;;6.90;99.90;;;;;;5053486;28;20029;-73
2021/05/27 01:08:44;;;;;;;7.10;6.40;;;7.00;99.90;;;;;;5068651;28;20039;-73
2021/05/27 01:11:10;;;;;;;7.00;6.13;;;7.00;99.90;;;;;;5055392;28;20021;-73
2021/05/27 01:13:35;;;;;;;6.90;6.05;;;7.00;99.90;;;;;;5058063;28;20025;-73
2021/05/27 01:16:01;;;;;;;7.47;6.65;;;6.80;99.90;;;;;;5061593;28;20062;-73
2021/05/27 01:18:27;;;;;;;8.35;7.25;;;6.70;99.90;;;;;;5073219;28;20047;-73
2021/05/27 01:20:57;;;;;;;8.55;7.65;;;6.80;99.90;;;;;;5064676;28;20029;-73
2021/05/27 01:23:26;;;;;;;7.60;6.80;;;6.70;99.90;;;;;;5055679;28;20017;-72
2021/05/27 01:25:56;;;;;;;11.15;8.32;;;6.70;99.90;;;;;;5073146;28;20499;-74
2021/05/27 01:28:22;;;;;;;9.18;8.27;;;6.70;99.90;;;;;;5059768;28;20029;-73
2021/05/27 01:30:49;;;;;;;8.95;7.63;;;6.60;99.90;;;;;;5072871;28;20024;-73
2021/05/27 01:33:16;;;;;;;10.40;7.95;;;6.30;99.90;;;;;;5069570;28;20477;-73
2021/05/27 01:35:41;;;;;;;11.40;8.35;;;6.20;99.90;;;;;;5063188;28;20025;-72
2021/05/27 01:38:18;;;;;;;9.43;8.10;;;6.20;99.90;;;;;;5051417;28;20028;-74
2021/05/27 01:40:45;;;;;;;9.32;8.38;;;6.30;99.90;;;;;;5046757;28;20077;-73
2021/05/27 01:43:11;;;;;;;10.15;9.23;;;6.60;99.90;;;;;;5067606;28;20025;-74
2021/05/27 01:45:37;;;;;;;12.30;9.32;;;6.70;99.90;;;;;;5064341;28;20036;-73
2021/05/27 01:48:04;;;;;;;10.93;9.35;;;6.70;99.90;;;;;;5072697;28;20056;-73
2021/05/27 01:50:30;;;;;;;11.77;9.55;;;6.70;99.90;;;;;;5060931;28;20620;-74
2021/05/27 01:53:07;;;;;;;10.65;9.52;;;6.80;99.90;;;;;;5057759;28;20126;-73
2021/05/27 01:55:33;;;;;;;10.75;9.57;;;7.00;99.90;;;;;;5054562;28;20059;-73
2021/05/27 01:57:59;;;;;;;16.00;11.95;;;7.10;99.90;;;;;;5071037;28;20021;-74
2021/05/27 02:00:26;;;;;;;12.60;9.82;;;7.10;99.90;;;;;;5052493;28;20021;-74
2021/05/27 02:02:52;;;;;;;10.93;9.70;;;7.20;99.90;;;;;;5072423;28;20044;-72
2021/05/27 02:05:17;;;;;;;15.38;11.57;;;7.30;99.90;;;;;;5054407;28;20038;-74
2021/05/27 02:07:43;;;;;;;13.40;12.00;;;7.20;99.90;;;;;;5054855;28;20400;-74
2021/05/27 02:10:10;;;;;;;11.13;10.02;;;7.10;99.90;;;;;;5052240;28;20040;-73
2021/05/27 02:12:36;;;;;;;12.07;10.38;;;7.20;99.90;;;;;;5065492;28;20036;-75
2021/05/27 02:15:02;;;;;;;13.70;12.23;;;7.30;99.90;;;;;;5052469;28;20025;-73
2021/05/27 02:17:28;;;;;;;13.13;11.82;;;7.30;99.90;;;;;;5052223;28;20109;-74
2021/05/27 02:19:54;;;;;;;13.20;11.90;;;7.30;99.90;;;;;;5052090;28;20107;-74
2021/05/27 02:22:19;;;;;;;15.60;14.00;;;7.30;99.90;;;;;;5047599;28;20021;-75
2021/05/27 02:24:45;;;;;;;15.18;13.48;;;7.30;99.90;;;;;;5034156;28;20021;-73
2021/05/27 02:27:11;;;;;;;19.60;14.65;;;7.30;99.90;;;;;;5052015;28;20020;-74
2021/05/27 02:29:36;;;;;;;19.60;15.32;;;7.20;99.90;;;;;;5051876;28;20037;-75
2021/05/27 02:32:02;;;;;;;18.17;15.15;;;7.00;99.90;;;;;;5071946;28;20419;-75
2021/05/27 02:34:27;;;;;;;15.95;13.23;;;6.90;99.90;;;;;;5071999;28;20037;-75
2021/05/27 02:36:53;;;;;;;17.85;15.48;;;6.90;99.90;;;;;;5071670;28;20036;-74
2021/05/27 02:39:19;;;;;;;20.38;16.65;;;6.90;99.90;;;;;;5071633;28;20081;-74
2021/05/27 02:41:44;;;;;;;18.08;16.17;;;6.90;99.90;;;;;;5071627;28;20036;-74
2021/05/27 02:44:10;;;;;;;19.75;17.48;;;6.90;99.90;;;;;;5071989;28;20024;-74
2021/05/27 02:46:35;;;;;;;21.25;17.02;;;6.90;99.90;;;;;;5040226;28;20040;-74
2021/05/27 02:49:01;;;;;;;19.80;17.58;;;7.10;99.90;;;;;;5053631;28;20032;-73
2021/05/27 02:51:27;;;;;;;19.88;17.77;;;7.20;99.90;;;;;;5053770;28;20035;-74
2021/05/27 02:53:53;;;;;;;19.77;17.52;;;7.30;99.90;;;;;;5053797;28;20419;-74
2021/05/27 02:56:19;;;;;;;19.95;17.83;;;7.30;99.90;;;;;;5057958;28;20096;-74
2021/05/27 02:58:44;;;;;;;20.95;18.52;;;7.30;99.90;;;;;;5063980;28;20191;-73
2021/05/27 03:01:10;;;;;;;20.38;18.25;;;7.30;99.90;;;;;;5057717;28;20020;-73
2021/05/27 03:03:36;;;;;;;21.30;18.80;;;7.20;99.90;;;;;;5071602;28;20016;-73
2021/05/27 03:06:02;;;;;;;21.02;18.33;;;7.20;99.90;;;;;;5067876;28;20028;-72
2021/05/27 03:08:28;;;;;;;23.50;19.80;;;7.10;99.90;;;;;;5064502;28;20059;-73
2021/05/27 03:10:54;;;;;;;18.17;16.38;;;7.10;99.90;;;;;;5071138;28;20539;-73
2021/05/27 03:13:19;;;;;;;24.67;19.83;;;7.20;99.90;;;;;;5057907;28;20123;-73
2021/05/27 03:15:45;;;;;;;19.08;17.05;;;7.20;99.90;;;;;;5072085;28;20033;-74
2021/05/27 03:18:10;;;;;;;22.77;19.52;;;7.30;99.90;;;;;;5052708;28;20039;-74
2021/05/27 03:20:36;;;;;;;23.98;19.52;;;7.30;99.90;;;;;;5064411;28;20051;-74
2021/05/27 03:23:03;;;;;;;24.70;20.42;;;7.30;99.90;;;;;;5047682;28;20017;-72
2021/05/27 03:25:29;;;;;;;21.35;18.55;;;7.30;99.90;;;;;;5077141;28;20035;-72
2021/05/27 03:27:55;;;;;;;20.90;18.65;;;7.40;99.90;;;;;;5065261;28;20028;-73
2021/05/27 03:30:21;;;;;;;20.40;18.25;;;7.40;99.90;;;;;;5063818;28;20031;-72
2021/05/27 03:32:47;;;;;;;20.45;18.30;;;7.50;99.90;;;;;;5077954;28;20396;-73
2021/05/27 03:35:12;;;;;;;22.48;18.13;;;7.50;99.90;;;;;;5059855;28;20021;-71
2021/05/27 03:37:39;;;;;;;22.13;19.70;;;7.50;99.90;;;;;;5077820;28;20021;-72
2021/05/27 03:40:12;;;;;;;24.52;20.77;;;7.50;99.90;;;;;;5053867;28;20021;-73
2021/05/27 03:42:40;;;;;;;21.58;18.40;;;7.50;99.90;;;;;;5040083;28;20067;-73
2021/05/27 03:45:12;;;;;;;25.23;20.65;;;7.40;99.90;;;;;;5077786;28;20875;-74
2021/05/27 03:47:38;;;;;;;23.45;19.92;;;7.50;99.90;;;;;;5059842;28;20028;-73
2021/05/27 03:50:08;;;;;;;24.20;19.05;;;7.50;99.90;;;;;;5070160;28;20021;-73
2021/05/27 03:52:34;;;;;;;23.88;20.75;;;7.50;99.90;;;;;;5072701;28;20043;-74
2021/05/27 03:55:00;;;;;;;23.73;19.73;;;7.50;99.90;;;;;;5077663;28;20538;-73
2021/05/27 03:57:26;;;;;;;22.15;19.05;;;7.50;99.90;;;;;;5064319;28;20028;-73
2021/05/27 04:02:41;;;;;;;19.70;17.48;;;7.50;99.90;;;;;;5071439;28;20498;-72
2021/05/27 04:07:51;;;;;;;22.33;19.88;;;7.50;99.90;;;;;;5053396;28;20089;-72
2021/05/27 04:10:16;;;;;;;22.58;20.17;;;7.50;99.90;;;;;;5077408;28;20508;-72
2021/05/27 04:12:45;;;;;;;25.63;21.58;;;7.50;99.90;;;;;;5070223;28;20021;-73
2021/05/27 04:15:23;;;;;;;22.48;20.17;;;7.40;99.90;;;;;;5058570;28;20021;-74
2021/05/27 04:17:52;;;;;;;24.33;20.65;;;7.50;99.90;;;;;;5059691;28;20025;-73
2021/05/27 04:20:17;;;;;;;23.80;20.42;;;7.50;99.90;;;;;;5061017;28;20029;-72
2021/05/27 04:22:44;;;;;;;26.20;20.75;;;7.50;99.90;;;;;;5066980;28;20081;-72
2021/05/27 04:25:12;;;;;;;30.05;24.70;;;7.50;99.90;;;;;;5060233;28;20025;-73
2021/05/27 04:27:37;;;;;;;46.75;35.47;;;7.50;99.90;;;;;;5074332;28;20024;-72
2021/05/27 04:30:17;;;;;;;31.98;25.42;;;7.60;99.90;;;;;;5073940;28;20383;-72
2021/05/27 04:33:09;;;;;;;33.70;26.38;;;7.60;99.90;;;;;;5074313;28;20048;-73
2021/05/27 04:35:39;;;;;;;29.38;24.23;;;7.60;99.90;;;;;;5042897;28;20375;-73
2021/05/27 04:38:10;;;;;;;35.20;27.27;;;7.60;99.90;;;;;;5049759;28;20063;-73
2021/05/27 04:40:38;;;;;;;26.67;22.80;;;7.60;99.90;;;;;;5053883;28;20112;-73
2021/05/27 04:43:04;;;;;;;24.90;22.30;;;7.60;99.90;;;;;;5067409;28;20021;-73
2021/05/27 04:45:30;;;;;;;23.35;19.23;;;7.70;99.90;;;;;;5045699;28;20495;-71
2021/05/27 04:47:57;;;;;;;22.75;19.65;;;7.80;99.90;;;;;;5039488;28;20092;-73
2021/05/27 04:50:23;;;;;;;25.10;21.48;;;7.70;99.90;;;;;;5045513;28;20051;-72
2021/05/27 04:52:49;;;;;;;23.60;20.77;;;7.80;99.90;;;;;;5057581;28;20021;-72
2021/05/27 04:55:16;;;;;;;24.88;21.30;;;7.80;99.90;;;;;;5053709;28;20032;-72
2021/05/27 04:57:42;;;;;;;24.65;21.73;;;7.80;99.90;;;;;;5070017;28;20024;-72
2021/05/27 05:00:14;;;;;;;22.95;20.55;;;7.90;99.90;;;;;;5054426;28;20078;-72
2021/05/27 05:02:40;;;;;;;21.80;19.45;;;7.80;99.90;;;;;;5049226;28;20550;-72
2021/05/27 05:05:10;;;;;;;23.35;20.17;;;7.90;99.90;;;;;;5053862;28;20033;-72
2021/05/27 05:07:37;;;;;;;26.50;21.73;;;7.90;99.90;;;;;;5053615;28;20082;-72
2021/05/27 05:10:03;;;;;;;22.83;20.48;;;7.80;99.90;;;;;;5065675;28;20090;-72
2021/05/27 05:12:29;;;;;;;24.55;21.13;;;7.80;99.90;;;;;;5073513;28;20043;-72
2021/05/27 05:14:54;;;;;;;24.45;21.23;;;7.80;99.90;;;;;;5061370;28;20547;-72
2021/05/27 05:17:20;;;;;;;24.65;21.92;;;7.70;99.90;;;;;;5072160;28;20369;-72
2021/05/27 05:19:45;;;;;;;26.08;20.60;;;7.80;99.90;;;;;;5061152;28;20025;-71
2021/05/27 05:22:11;;;;;;;23.52;19.90;;;7.80;99.90;;;;;;5072073;28;20443;-72
2021/05/27 05:24:36;;;;;;;22.90;20.45;;;7.70;99.90;;;;;;5061471;28;20078;-72
2021/05/27 05:27:02;;;;;;;24.98;19.60;;;7.80;99.90;;;;;;5066627;28;20094;-72
2021/05/27 05:29:28;;;;;;;23.10;20.60;;;7.90;99.90;;;;;;5052964;28;20491;-72
2021/05/27 05:31:54;;;;;;;24.30;21.33;;;7.90;99.90;;;;;;5071345;28;20028;-72
2021/05/27 05:34:19;;;;;;;24.50;22.00;;;7.80;99.90;;;;;;5061692;28;20106;-72
2021/05/27 05:36:45;;;;;;;24.98;22.38;;;7.80;99.90;;;;;;5056967;28;20051;-72
2021/05/27 05:39:10;;;;;;;28.63;23.75;;;7.90;99.90;;;;;;5061709;28;20018;-72
2021/05/27 05:41:37;;;;;;;29.23;24.65;;;7.90;99.90;;;;;;5057125;28;20387;-72
2021/05/27 05:44:03;;;;;;;28.95;25.85;;;7.90;99.90;;;;;;5061889;28;20091;-73
2021/05/27 05:46:29;;;;;;;32.17;28.15;;;8.10;99.90;;;;;;5039053;28;20480;-72
2021/05/27 05:48:54;;;;;;;23.58;21.02;;;8.10;99.90;;;;;;5072750;28;20029;-72
2021/05/27 05:51:20;;;;;;;22.02;19.80;;;8.10;99.90;;;;;;5059119;28;20032;-73
2021/05/27 05:53:45;;;;;;;23.65;20.30;;;8.10;99.90;;;;;;5062062;28;20029;-72
2021/05/27 05:56:11;;;;;;;24.55;21.13;;;8.10;99.90;;;;;;5056453;28;20028;-72
2021/05/27 05:58:37;;;;;;;24.88;22.27;;;8.00;99.90;;;;;;5062188;28;20027;-72
2021/05/27 06:01:03;;;;;;;22.98;20.45;;;8.10;99.90;;;;;;5052461;28;20028;-72
2021/05/27 06:03:31;;;;;;;22.85;19.90;;;8.30;99.90;;;;;;5052555;28;20017;-73
2021/05/27 06:05:57;;;;;;;21.95;19.65;;;8.30;99.90;;;;;;5065751;28;20053;-72
2021/05/27 06:08:22;;;;;;;22.92;20.38;;;8.20;99.90;;;;;;5052453;28;20063;-72
2021/05/27 06:10:48;;;;;;;23.42;20.95;;;8.30;99.90;;;;;;5057829;28;20095;-72
2021/05/27 06:13:14;;;;;;;26.08;22.52;;;8.30;99.90;;;;;;5072392;28;20021;-72
2021/05/27 06:15:40;;;;;;;27.40;24.42;;;8.30;99.90;;;;;;5041015;28;20043;-72
2021/05/27 06:18:06;;;;;;;24.13;21.58;;;8.40;99.90;;;;;;5072150;28;20086;-72
2021/05/27 06:20:32;;;;;;;24.98;22.42;;;8.40;99.90;;;;;;5040476;28;20016;-73
2021/05/27 06:22:57;;;;;;;25.02;21.77;;;8.50;99.90;;;;;;5072125;28;20435;-72
2021/05/27 06:25:23;;;;;;;25.90;23.17;;;8.50;99.90;;;;;;5058433;28;20017;-72
2021/05/27 06:27:51;;;;;;;28.08;22.20;;;8.60;99.90;;;;;;5060250;28;20114;-72
2021/05/27 06:30:17;;;;;;;25.38;22.30;;;8.50;99.90;;;;;;5033894;28;20025;-70
2021/05/27 06:32:43;;;;;;;24.85;20.88;;;8.60;99.90;;;;;;5064069;28;20446;-72
2021/05/27 06:35:10;;;;;;;26.65;20.60;;;8.60;99.90;;;;;;5052965;28;20037;-72
2021/05/27 06:37:38;;;;;;;22.45;20.15;;;8.80;99.90;;;;;;5046440;28;20856;-72
2021/05/27 06:40:12;;;;;;;21.52;19.23;;;8.90;99.90;;;;;;5058439;28;20066;-72
2021/05/27 06:42:38;;;;;;;21.60;19.30;;;9.00;99.90;;;;;;5054323;28;20016;-71
2021/05/27 06:45:05;;;;;;;22.88;18.60;;;9.00;99.90;;;;;;5064535;28;20082;-70
2021/05/27 06:47:30;;;;;;;22.70;18.10;;;9.10;99.90;;;;;;5064957;28;20025;-71
2021/05/27 06:49:56;;;;;;;20.38;17.05;;;9.20;99.90;;;;;;5071541;28;20028;-71
2021/05/27 06:52:21;;;;;;;18.88;16.73;;;9.20;99.90;;;;;;5071697;28;20024;-71
2021/05/27 06:54:47;;;;;;;20.70;15.35;;;9.30;99.90;;;;;;5065240;28;20436;-71
2021/05/27 06:57:13;;;;;;;18.10;16.25;;;9.30;99.90;;;;;;5033695;28;20021;-73
2021/05/27 06:59:39;;;;;;;17.90;15.45;;;9.40;99.90;;;;;;5055945;28;20025;-72
2021/05/27 07:02:04;;;;;;;18.63;16.42;;;9.40;99.90;;;;;;5051639;28;20451;-72
2021/05/27 07:04:30;;;;;;;21.02;16.27;;;9.30;99.90;;;;;;5058516;28;20031;-72
2021/05/27 07:06:55;;;;;;;17.23;15.32;;;9.30;99.90;;;;;;5057965;28;20131;-72
2021/05/27 07:09:21;;;;;;;16.75;14.77;;;9.50;99.90;;;;;;5064777;28;20036;-72
2021/05/27 07:11:47;;;;;;;15.20;12.88;;;9.90;99.90;;;;;;5064789;28;20020;-72
2021/05/27 07:14:12;;;;;;;14.05;12.57;;;9.90;99.90;;;;;;5033597;28;20127;-73
2021/05/27 07:16:38;;;;;;;15.25;12.00;;;10.20;99.90;;;;;;5051199;28;20037;-72
2021/05/27 07:19:04;;;;;;;12.90;10.75;;;10.30;99.90;;;;;;5057319;28;20059;-72
2021/05/27 07:21:29;;;;;;;10.32;9.18;;;10.20;99.90;;;;;;5071393;28;20091;-72
2021/05/27 07:23:55;;;;;;;10.98;9.88;;;10.40;99.90;;;;;;5071417;28;20127;-72
2021/05/27 07:26:21;;;;;;;8.90;8.00;;;10.30;99.90;;;;;;5071374;28;20036;-72
2021/05/27 07:28:46;;;;;;;10.02;7.85;;;10.30;99.90;;;;;;5065395;28;20027;-72
2021/05/27 07:31:12;;;;;;;12.02;8.18;;;10.30;99.90;;;;;;5063770;28;20124;-72
2021/05/27 07:33:38;;;;;;;11.18;7.38;;;10.20;99.90;;;;;;5039771;28;20024;-72
2021/05/27 07:36:05;;;;;;;8.35;7.55;;;10.20;99.90;;;;;;5071519;28;20025;-72
2021/05/27 07:38:31;;;;;;;8.77;6.70;;;10.20;99.90;;;;;;5053274;28;20028;-72
2021/05/27 07:40:57;;;;;;;7.60;6.75;;;10.20;99.90;;;;;;5071002;28;20027;-72
2021/05/27 07:43:22;;;;;;;8.05;6.50;;;10.30;99.90;;;;;;5057696;28;20020;-72
2021/05/27 07:45:48;;;;;;;8.52;6.35;;;10.40;99.90;;;;;;5071071;28;20545;-72
2021/05/27 07:48:13;;;;;;;8.23;6.20;;;10.40;99.90;;;;;;5052295;28;20067;-72
2021/05/27 07:50:39;;;;;;;6.93;5.70;;;10.50;99.90;;;;;;5062723;28;20108;-72
2021/05/27 07:53:05;;;;;;;9.07;6.15;;;10.60;99.90;;;;;;5071140;28;20025;-72
2021/05/27 07:55:33;;;;;;;6.63;5.80;;;10.70;99.90;;;;;;5070895;28;20021;-72
2021/05/27 07:57:58;;;;;;;6.22;5.57;;;10.70;99.90;;;;;;5069735;28;20020;-73
2021/05/27 08:00:24;;;;;;;8.00;5.60;;;10.60;99.90;;;;;;5054196;28;20537;-72
2021/05/27 08:02:50;;;;;;;6.93;4.93;;;10.60;99.90;;;;;;5055653;28;20040;-72
2021/05/27 08:05:16;;;;;;;5.43;4.78;;;10.50;99.90;;;;;;5036699;28;20370;-72
2021/05/27 08:07:42;;;;;;;7.05;4.82;;;10.50;99.90;;;;;;5054096;28;20025;-72
2021/05/27 08:10:10;;;;;;;8.48;4.70;;;10.50;99.90;;;;;;5053938;28;20083;-72
2021/05/27 08:12:36;;;;;;;5.68;5.00;;;10.50;99.90;;;;;;5061557;28;20436;-72
2021/05/27 08:15:02;;;;;;;5.30;4.60;;;10.50;99.90;;;;;;5060269;28;20032;-72
2021/05/27 08:17:29;;;;;;;6.18;4.55;;;10.40;99.90;;;;;;5043745;28;20021;-72
2021/05/27 08:19:54;;;;;;;4.90;4.45;;;10.40;99.90;;;;;;5074230;28;20027;-72
2021/05/27 08:22:20;;;;;;;7.30;4.63;;;10.30;99.90;;;;;;5056424;28;20107;-72
2021/05/27 08:24:46;;;;;;;7.55;4.85;;;10.20;99.90;;;;;;5073760;28;20017;-74
2021/05/27 08:27:12;;;;;;;7.60;5.00;;;10.20;99.90;;;;;;5061073;28;20034;-72
2021/05/27 08:29:38;;;;;;;5.22;4.70;;;10.20;99.90;;;;;;5072356;28;20060;-72
2021/05/27 08:32:06;;;;;;;8.40;5.15;;;10.10;99.90;;;;;;5073462;28;20027;-72
2021/05/27 08:34:32;;;;;;;6.70;5.22;;;10.10;99.90;;;;;;5073313;28;20025;-72
2021/05/27 08:36:57;;;;;;;6.68;5.32;;;10.00;99.90;;;;;;5073254;28;20081;-72
2021/05/27 08:39:23;;;;;;;5.90;5.30;;;10.00;99.90;;;;;;5055260;28;20413;-72
2021/05/27 08:41:48;;;;;;;7.57;5.45;;;10.10;99.90;;;;;;5073417;28;20505;-72
2021/05/27 08:44:14;;;;;;;11.27;5.80;;;10.00;99.90;;;;;;5073746;28;20028;-72
2021/05/27 08:46:40;;;;;;;7.20;5.20;;;10.10;99.90;;;;;;5073713;28;20404;-72
2021/05/27 08:49:06;;;;;;;7.72;5.28;;;10.00;99.90;;;;;;5055596;28;20033;-72
2021/05/27 08:51:35;;;;;;;9.68;5.45;;;10.10;99.90;;;;;;5073823;28;20539;-72
2021/05/27 08:54:02;;;;;;;5.55;5.03;;;10.10;99.90;;;;;;5073475;28;20042;-73
2021/05/27 08:56:27;;;;;;;7.63;5.00;;;10.10;99.90;;;;;;5073539;28;20056;-72
2021/05/27 08:58:53;;;;;;;7.47;5.25;;;10.00;99.90;;;;;;5046571;28;20053;-72
2021/05/27 09:01:22;;;;;;;6.03;5.38;;;10.00;99.90;;;;;;5060967;28;20523;-72
2021/05/27 09:03:49;;;;;;;5.30;4.80;;;9.90;99.90;;;;;;5073563;28;20021;-72
2021/05/27 09:06:15;;;;;;;10.30;5.72;;;9.80;99.90;;;;;;5050558;28;20358;-72
2021/05/27 09:08:41;;;;;;;7.35;5.10;;;9.90;99.90;;;;;;5054707;28;20109;-72
2021/05/27 09:11:15;;;;;;;6.97;5.18;;;9.90;99.90;;;;;;5054687;28;20476;-72
2021/05/27 09:13:58;;;;;;;5.90;5.40;;;9.90;99.90;;;;;;5073304;28;20033;-72
2021/05/27 09:16:27;;;;;;;7.30;5.32;;;9.90;99.90;;;;;;5055114;28;20510;-72
2021/05/27 09:18:54;;;;;;;5.88;4.72;;;9.90;99.90;;;;;;5073194;28;20078;-72
2021/05/27 09:21:41;;;;;;;8.25;4.70;;;9.90;99.90;;;;;;5073149;28;20081;-72
2021/05/27 09:24:08;;;;;;;8.75;5.28;;;9.90;99.90;;;;;;5073080;28;20024;-72
2021/05/27 09:26:48;;;;;;;7.40;5.03;;;9.80;99.90;;;;;;5055067;28;20033;-72
2021/05/27 09:29:13;;;;;;;5.45;4.78;;;9.80;99.90;;;;;;5072804;28;20032;-72
2021/05/27 09:32:14;;;;;;;7.88;5.22;;;9.80;99.90;;;;;;5073046;28;20483;-72
2021/05/27 09:34:48;;;;;;;13.10;6.03;;;9.80;99.90;;;;;;4971850;28;20035;-72
2021/05/27 09:37:29;;;;;;;8.00;5.82;;;9.80;99.90;;;;;;5057289;28;20036;-72
2021/05/27 09:39:55;;;;;;;8.52;6.97;;;9.80;99.90;;;;;;5073171;28;20016;-72
2021/05/27 09:42:21;;;;;;;10.18;6.47;;;9.80;99.90;;;;;;5061452;28;20035;-72
2021/05/27 09:44:47;;;;;;;10.35;7.15;;;9.90;99.90;;;;;;5057707;28;20021;-72
2021/05/27 09:47:12;;;;;;;7.45;6.18;;;9.90;99.90;;;;;;5072879;28;20052;-72
2021/05/27 09:49:57;;;;;;;8.23;6.05;;;9.90;99.90;;;;;;5072453;28;20028;-72
2021/05/27 09:52:25;;;;;;;9.75;6.38;;;9.90;99.90;;;;;;5054709;28;20112;-72
2021/05/27 09:54:54;;;;;;;7.93;6.20;;;9.80;99.90;;;;;;5054696;28;20105;-72
2021/05/27 09:57:24;;;;;;;7.15;5.63;;;9.80;99.90;;;;;;5054445;28;20032;-72
2021/05/27 09:59:50;;;;;;;9.00;5.97;;;9.80;99.90;;;;;;5037855;28;20021;-72
2021/05/27 10:02:20;;;;;;;7.80;5.72;;;9.90;99.90;;;;;;5067918;28;20020;-72
2021/05/27 10:04:58;;;;;;;6.00;5.40;;;9.90;99.90;;;;;;5072330;28;20462;-71
2021/05/27 10:07:59;;;;;;;6.70;5.93;;;10.00;99.90;;;;;;5057540;28;20485;-72
2021/05/27 10:10:24;;;;;;;9.73;5.95;;;10.10;99.90;;;;;;4986499;28;20458;-72
2021/05/27 10:12:52;;;;;;;6.57;5.88;;;10.30;99.90;;;;;;5055345;28;20036;-72
2021/05/27 10:15:24;;;;;;;11.88;6.75;;;10.30;99.90;;;;;;5069554;28;20082;-72
2021/05/27 10:17:51;;;;;;;6.88;5.70;;;10.20;99.90;;;;;;5062060;28;20023;-72
2021/05/27 10:20:19;;;;;;;6.13;5.45;;;10.10;99.90;;;;;;5071752;28;20116;-72
2021/05/27 10:22:45;;;;;;;6.25;5.35;;;10.10;99.90;;;;;;5053244;28;20095;-72
2021/05/27 10:25:16;;;;;;;6.93;5.70;;;10.20;99.90;;;;;;5072045;28;20021;-72
2021/05/27 10:27:45;;;;;;;6.90;5.25;;;10.30;99.90;;;;;;5071980;28;20023;-72
2021/05/27 10:30:12;;;;;;;7.15;5.28;;;10.30;99.90;;;;;;5053749;28;20025;-72
2021/05/27 10:32:44;;;;;;;8.32;5.65;;;10.40;99.90;;;;;;5071757;28;20032;-72
2021/05/27 10:35:10;;;;;;;6.30;4.97;;;10.50;99.90;;;;;;5071836;28;20032;-72
2021/05/27 10:37:39;;;;;;;7.32;5.28;;;10.60;99.90;;;;;;5071706;28;20036;-72
2021/05/27 10:40:23;;;;;;;6.95;4.97;;;10.90;99.90;;;;;;5071607;28;20029;-72
2021/05/27 10:42:57;;;;;;;5.10;4.60;;;11.20;99.90;;;;;;5053522;28;20400;-72
2021/05/27 10:45:24;;;;;;;5.25;4.70;;;11.40;99.90;;;;;;5053567;28;20143;-72
2021/05/27 10:48:11;;;;;;;5.13;4.63;;;11.50;99.90;;;;;;5071757;28;20029;-73
2021/05/27 10:50:49;;;;;;;5.78;4.20;;;11.30;99.90;;;;;;5071522;28;20058;-72
2021/05/27 10:53:37;;;;;;;5.35;4.25;;;11.10;99.90;;;;;;5053624;28;20024;-72
2021/05/27 10:56:15;;;;;;;5.15;4.40;;;11.00;99.90;;;;;;5071438;28;20078;-72
2021/05/27 11:01:13;;;;;;;7.43;4.50;;;11.00;99.90;;;;;;5045108;28;20028;-72
2021/05/27 11:03:48;;;;;;;4.78;3.88;;;11.00;99.90;;;;;;5072211;28;20023;-72
2021/05/27 11:06:28;;;;;;;6.50;4.25;;;11.00;99.90;;;;;;5066353;28;20524;-72
2021/05/27 11:09:16;;;;;;;5.90;4.35;;;11.00;99.90;;;;;;5054449;28;20091;-72
2021/05/27 11:11:45;;;;;;;4.43;4.03;;;11.00;99.90;;;;;;5063197;28;20064;-72
2021/05/27 11:14:40;;;;;;;6.80;4.10;;;11.10;99.90;;;;;;5036751;28;20392;-72
2021/05/27 11:17:06;;;;;;;5.05;4.13;;;11.10;99.90;;;;;;5030493;28;20566;-72
2021/05/27 11:19:48;;;;;;;4.95;3.88;;;11.20;99.90;;;;;;5050963;28;20095;-72
2021/05/27 11:22:36;;;;;;;4.15;3.75;;;11.30;99.90;;;;;;5051207;28;20021;-72
2021/05/27 11:25:11;;;;;;;5.60;3.83;;;11.50;99.90;;;;;;5039411;28;20105;-72
2021/05/27 11:27:42;;;;;;;6.18;3.72;;;11.80;99.90;;;;;;5051134;28;20029;-72
2021/05/27 11:30:39;;;;;;;4.22;3.63;;;11.90;99.90;;;;;;5050789;28;20100;-72
2021/05/27 11:33:29;;;;;;;4.20;3.80;;;12.20;99.90;;;;;;5047195;28;20476;-72
2021/05/27 11:35:57;;;;;;;5.30;4.00;;;12.60;99.90;;;;;;5047972;28;20049;-72
2021/05/27 11:38:24;;;;;;;3.90;3.50;;;13.00;99.90;;;;;;5054911;28;20025;-72
2021/05/27 11:40:58;;;;;;;5.57;3.85;;;13.30;99.90;;;;;;5037478;28;20021;-72
2021/05/27 11:43:30;;;;;;;9.00;3.90;;;13.80;99.90;;;;;;5051661;28;20108;-72
2021/05/27 11:45:57;;;;;;;5.22;3.88;;;13.60;99.90;;;;;;5038020;28;20104;-72
2021/05/27 11:49:12;;;;;;;4.22;3.45;;;12.80;99.90;;;;;;5054910;28;20468;-72
2021/05/27 11:51:17;;;;;;;4.55;3.85;;;12.40;99.90;;;;;;5050553;28;20057;-72
2021/05/27 11:53:53;;;;;;;5.35;4.05;;;12.50;99.90;;;;;;5054681;28;20013;-72
2021/05/27 11:56:30;;;;;;;6.22;4.30;;;12.30;99.90;;;;;;5050824;28;20029;-72
2021/05/27 11:58:56;;;;;;;4.85;4.00;;;12.00;99.90;;;;;;5049846;28;20025;-72
2021/05/27 12:01:25;;;;;;;5.05;3.67;;;11.90;99.90;;;;;;5043695;28;20116;-72
2021/05/27 12:04:14;;;;;;;5.80;4.10;;;12.00;99.90;;;;;;5032490;28;20067;-72
2021/05/27 12:06:53;;;;;;;5.20;3.83;;;12.10;99.90;;;;;;5054610;28;20361;-72
2021/05/27 12:09:39;;;;;;;5.38;3.90;;;12.40;99.90;;;;;;5054365;28;20078;-72
2021/05/27 12:12:20;;;;;;;4.45;4.05;;;12.60;99.90;;;;;;5054529;28;20025;-72
2021/05/27 12:14:48;;;;;;;4.32;3.50;;;12.90;99.90;;;;;;5074435;28;20031;-72
2021/05/27 12:17:36;;;;;;;4.95;4.22;;;13.10;99.90;;;;;;5074467;28;20020;-72
2021/05/27 12:20:07;;;;;;;5.65;4.15;;;12.70;99.90;;;;;;5074171;28;20017;-72
2021/05/27 12:22:47;;;;;;;3.75;3.45;;;12.70;99.90;;;;;;5074485;28;20063;-72
2021/05/27 12:25:14;;;;;;;4.50;3.50;;;12.90;99.90;;;;;;5052434;28;20029;-71
2021/05/27 12:27:45;;;;;;;5.00;3.45;;;12.90;99.90;;;;;;5054257;28;20583;-72
2021/05/27 12:30:12;;;;;;;5.65;3.20;;;12.70;99.90;;;;;;5072278;28;20078;-72
2021/05/27 12:32:43;;;;;;;5.57;3.58;;;12.70;99.90;;;;;;5074243;28;20028;-71
2021/05/27 12:35:14;;;;;;;4.03;3.72;;;12.70;99.90;;;;;;5068764;28;20385;-72
2021/05/27 12:37:46;;;;;;;3.97;3.38;;;12.80;99.90;;;;;;5053972;28;20061;-71
2021/05/27 12:40:12;;;;;;;4.00;3.60;;;13.20;99.90;;;;;;5060641;28;20539;-71
2021/05/27 12:42:37;;;;;;;3.28;2.95;;;13.60;99.90;;;;;;5073954;28;20115;-71
2021/05/27 12:45:30;;;;;;;3.97;3.33;;;13.50;99.90;;;;;;5072729;28;20048;-71
2021/05/27 12:48:03;;;;;;;6.00;3.35;;;13.00;99.90;;;;;;5057162;28;20112;-71
2021/05/27 12:50:29;;;;;;;4.95;3.60;;;12.80;99.90;;;;;;5064763;28;20024;-71
2021/05/27 12:52:55;;;;;;;3.72;3.22;;;12.90;99.90;;;;;;5042604;28;20543;-72
2021/05/27 12:55:30;;;;;;;3.75;3.35;;;12.90;99.90;;;;;;5045155;28;20025;-71
2021/05/27 12:57:59;;;;;;;5.25;3.75;;;13.10;99.90;;;;;;5067089;28;20025;-71
2021/05/27 13:00:26;;;;;;;4.60;3.92;;;13.00;99.90;;;;;;5053570;28;20044;-71